Time;durP1;ratioP1;P1;durP2;ratioP2;P2;SDS_P1;SDS_P2;PMS_P1;PMS_P2;Temp;Humidity;BMP_temperature;BMP_pressure;BME280_temperature;BME280_humidity;BME280_pressure;Samples;Min_cycle;Max_cycle;Signal;HPM_P1;HPM_P2
2023/01/30 00:00:24;;;;;;;14.63;6.15;;;;;;;7.28;87.43;102015.97;6108225;19;20017;-77
2023/01/30 00:02:29;;;;;;;16.63;6.50;;;;;;;7.30;87.47;102010.75;6107988;19;20018;-76
2023/01/30 00:04:37;;;;;;;14.48;6.60;;;;;;;7.32;87.13;102003.72;6107757;19;20010;-75
2023/01/30 00:06:42;;;;;;;13.75;6.95;;;;;;;7.32;87.26;102009.84;6107377;19;20328;-76
2023/01/30 00:08:48;;;;;;;16.85;7.22;;;;;;;7.31;87.04;102004.63;6106349;19;20015;-77
2023/01/30 00:10:52;;;;;;;10.90;5.97;;;;;;;7.30;87.36;101995.06;6107879;19;20010;-76
2023/01/30 00:13:01;;;;;;;11.95;6.05;;;;;;;7.29;87.06;101988.94;6106961;19;20072;-75
2023/01/30 00:15:10;;;;;;;21.02;6.80;;;;;;;7.31;87.18;101981.09;6107466;19;20027;-75
2023/01/30 00:17:14;;;;;;;14.75;6.25;;;;;;;7.32;87.48;101988.94;6105053;19;20572;-75
2023/01/30 00:19:21;;;;;;;23.00;7.50;;;;;;;7.29;87.22;101986.31;6106777;19;20405;-75
2023/01/30 00:21:25;;;;;;;16.35;7.07;;;;;;;7.30;87.45;101985.47;6105154;19;20044;-76
2023/01/30 00:23:32;;;;;;;21.20;6.43;;;;;;;7.30;87.11;101988.06;6108619;19;20013;-75
2023/01/30 00:25:40;;;;;;;16.60;7.22;;;;;;;7.33;87.37;101988.03;6101451;19;20011;-75
2023/01/30 00:27:45;;;;;;;17.55;6.10;;;;;;;7.35;87.22;101991.53;6106129;19;20084;-76
2023/01/30 00:29:53;;;;;;;20.98;5.95;;;;;;;7.37;87.18;101973.19;6107687;19;20015;-76
2023/01/30 00:32:07;;;;;;;16.13;7.32;;;;;;;7.36;86.91;101972.31;6106832;19;20040;-78
2023/01/30 00:34:12;;;;;;;24.20;7.93;;;;;;;7.34;86.66;101957.53;6104502;19;20014;-77
2023/01/30 00:36:19;;;;;;;13.00;6.20;;;;;;;7.32;86.79;101954.06;6107530;19;20013;-76
2023/01/30 00:38:25;;;;;;;13.18;6.75;;;;;;;7.30;86.79;101961.94;6106248;19;20028;-76
2023/01/30 00:40:31;;;;;;;17.25;6.20;;;;;;;7.33;86.75;101958.44;6106209;19;20382;-78
2023/01/30 00:47:14;;;;;;;13.88;4.88;;;;;;;7.33;86.62;101951.44;6101344;19;20013;-76
2023/01/30 00:49:19;;;;;;;12.13;5.65;;;;;;;7.36;86.20;101947.94;6104317;19;20409;-75
2023/01/30 00:51:26;;;;;;;16.75;7.50;;;;;;;7.35;86.34;101957.53;6102558;19;20011;-75
2023/01/30 00:53:32;;;;;;;17.08;5.70;;;;;;;7.31;86.39;101942.75;6100717;19;20006;-77
2023/01/30 00:55:40;;;;;;;16.67;5.13;;;;;;;7.33;86.34;101946.22;6083255;19;20007;-74
2023/01/30 00:57:48;;;;;;;16.35;5.82;;;;;;;7.34;86.01;101947.06;6101047;19;20018;-75
2023/01/30 00:59:53;;;;;;;15.20;5.47;;;;;;;7.37;85.99;101936.56;6102077;19;20014;-75
2023/01/30 01:02:01;;;;;;;15.40;5.47;;;;;;;7.35;85.46;101938.38;6099193;19;20010;-74
2023/01/30 01:04:09;;;;;;;12.77;5.25;;;;;;;7.34;85.34;101921.78;6104491;19;20013;-75
2023/01/30 01:06:14;;;;;;;17.35;5.10;;;;;;;7.32;85.47;101902.66;6105744;19;20006;-74
2023/01/30 01:08:21;;;;;;;14.77;5.63;;;;;;;7.28;85.59;101893.09;6104489;19;20010;-74
2023/01/30 01:10:26;;;;;;;15.02;5.70;;;;;;;7.28;85.40;101887.88;6106541;19;20014;-75
2023/01/30 01:12:31;;;;;;;17.98;6.45;;;;;;;7.29;85.40;101886.09;6106330;19;20467;-75
2023/01/30 01:14:40;;;;;;;17.83;5.80;;;;;;;7.26;85.34;101876.53;6107229;19;20114;-75
2023/01/30 01:16:47;;;;;;;15.82;5.35;;;;;;;7.24;85.19;101868.75;6106947;19;20021;-75
2023/01/30 01:18:56;;;;;;;21.58;5.90;;;;;;;7.19;85.34;101867.06;6106190;19;20018;-74
2023/01/30 01:21:04;;;;;;;14.82;5.28;;;;;;;7.15;85.81;101873.19;6103335;19;20022;-75
2023/01/30 01:23:11;;;;;;;13.40;4.20;;;;;;;7.19;85.68;101875.75;6105218;19;20011;-75
2023/01/30 01:25:20;;;;;;;19.58;5.18;;;;;;;7.18;85.14;101876.63;6104167;19;20010;-75
2023/01/30 01:27:26;;;;;;;14.15;5.15;;;;;;;7.18;85.30;101881.84;6101514;19;20010;-77
2023/01/30 01:29:32;;;;;;;16.80;4.63;;;;;;;7.19;85.32;101872.28;6104793;19;20013;-76
2023/01/30 01:31:39;;;;;;;11.65;4.40;;;;;;;7.16;85.28;101885.34;6098693;19;20403;-77
2023/01/30 01:33:45;;;;;;;14.07;4.88;;;;;;;7.13;85.11;101885.41;6099629;19;20010;-77
2023/01/30 01:35:55;;;;;;;10.90;4.85;;;;;;;7.12;85.12;101871.47;6102649;19;20090;-76
2023/01/30 01:38:00;;;;;;;15.68;4.55;;;;;;;7.15;85.23;101875.78;6104702;19;20354;-76
2023/01/30 01:42:26;;;;;;;13.45;4.38;;;;;;;7.12;84.83;101884.53;6106114;19;20018;-75
2023/01/30 01:45:00;;;;;;;12.10;3.65;;;;;;;7.11;85.41;101888.03;6104817;19;20048;-76
2023/01/30 01:47:05;;;;;;;13.32;4.38;;;;;;;7.10;85.01;101893.28;6104978;19;20014;-77
2023/01/30 01:49:17;;;;;;;11.18;3.92;;;;;;;7.13;84.87;101891.47;6104292;19;20011;-76
2023/01/30 01:51:30;;;;;;;13.93;4.70;;;;;;;7.12;84.82;101888.91;6104891;19;20006;-76
2023/01/30 01:53:42;;;;;;;12.15;4.30;;;;;;;7.09;85.10;101892.41;6099970;19;20074;-76
2023/01/30 01:55:53;;;;;;;11.68;4.10;;;;;;;7.09;85.16;101883.72;6079046;19;20031;-77
2023/01/30 01:58:06;;;;;;;15.15;4.63;;;;;;;7.04;85.60;101887.22;6104369;19;20017;-75
2023/01/30 02:00:15;;;;;;;10.50;4.22;;;;;;;7.08;85.63;101882.81;6104693;19;20018;-76
2023/01/30 02:02:22;;;;;;;15.63;4.78;;;;;;;7.01;86.01;101887.25;6080525;19;20036;-75
2023/01/30 02:06:49;;;;;;;16.60;3.92;;;;;;;6.98;86.48;101886.41;6098928;19;20372;-75
2023/01/30 02:08:57;;;;;;;11.05;4.47;;;;;;;7.01;86.69;101889.88;6102461;19;20485;-76
2023/01/30 02:11:10;;;;;;;17.10;4.82;;;;;;;7.00;86.70;101882.91;6104252;19;20467;-77
2023/01/30 02:13:15;;;;;;;10.68;3.78;;;;;;;6.97;86.87;101893.38;6104485;19;20024;-77
2023/01/30 02:15:21;;;;;;;18.70;4.70;;;;;;;6.93;87.15;101881.22;6103308;19;20011;-77
2023/01/30 02:17:26;;;;;;;12.82;5.30;;;;;;;6.97;86.92;101880.31;6106538;19;20033;-76
2023/01/30 02:19:39;;;;;;;12.00;4.03;;;;;;;6.98;86.70;101871.59;6104651;19;20029;-75
2023/01/30 02:22:20;;;;;;;18.92;4.43;;;;;;;6.97;86.85;101869.84;6077009;19;20496;-75
2023/01/30 02:24:44;;;;;;;14.27;5.03;;;;;;;6.99;86.96;101870.72;6104186;19;20018;-75
2023/01/30 02:27:09;;;;;;;11.45;3.55;;;;;;;7.02;86.49;101862.84;6104366;19;20036;-75
2023/01/30 02:29:51;;;;;;;12.35;3.97;;;;;;;7.09;86.20;101849.72;6105803;19;20014;-75
2023/01/30 02:32:04;;;;;;;15.00;4.43;;;;;;;7.11;86.22;101855.78;6100010;19;20134;-75
2023/01/30 02:34:27;;;;;;;7.70;3.60;;;;;;;7.14;85.85;101859.25;6107061;19;20014;-76
2023/01/30 02:36:43;;;;;;;10.45;4.10;;;;;;;7.18;85.78;101857.47;6100040;19;20018;-77
2023/01/30 02:38:55;;;;;;;14.75;4.35;;;;;;;7.23;85.52;101853.06;6103707;19;20032;-77
2023/01/30 02:41:15;;;;;;;12.43;3.38;;;;;;;7.21;85.27;101860.03;6100853;19;20397;-77
2023/01/30 02:43:30;;;;;;;11.95;4.40;;;;;;;7.25;85.58;101865.22;6100344;19;20010;-78
2023/01/30 02:45:44;;;;;;;9.90;3.40;;;;;;;7.27;85.36;101873.06;6102138;19;20016;-77
2023/01/30 02:48:00;;;;;;;11.00;3.47;;;;;;;7.23;85.96;101869.59;6094579;19;20007;-77
2023/01/30 02:50:12;;;;;;;14.52;4.38;;;;;;;7.30;85.48;101867.81;6100435;19;20007;-76
2023/01/30 02:52:21;;;;;;;12.05;3.92;;;;;;;7.20;86.08;101859.19;6101392;19;20010;-77
2023/01/30 02:54:26;;;;;;;10.77;3.92;;;;;;;7.26;85.60;101847.78;6097804;19;20018;-77
2023/01/30 02:56:31;;;;;;;10.73;4.35;;;;;;;7.28;85.44;101842.56;6100508;19;20007;-77
2023/01/30 02:58:42;;;;;;;11.57;4.18;;;;;;;7.30;85.44;101857.34;6100515;19;20467;-77
2023/01/30 03:01:07;;;;;;;10.90;3.83;;;;;;;7.30;85.22;101839.03;6100521;19;20007;-77
2023/01/30 03:03:47;;;;;;;13.25;4.30;;;;;;;7.35;84.98;101842.47;6102883;19;20352;-77
2023/01/30 03:06:15;;;;;;;11.18;4.28;;;;;;;7.34;84.81;101843.34;6097104;19;20390;-78
2023/01/30 03:08:30;;;;;;;7.30;2.92;;;;;;;7.36;85.26;101836.34;6101547;19;20040;-77
2023/01/30 03:10:43;;;;;;;11.30;4.32;;;;;;;7.39;84.90;101825.84;6101907;19;20471;-77
2023/01/30 03:12:54;;;;;;;9.80;4.05;;;;;;;7.41;84.68;101850.25;6101590;19;20443;-77
2023/01/30 03:15:05;;;;;;;11.25;3.30;;;;;;;7.39;84.85;101844.16;6101395;19;20025;-75
2023/01/30 03:17:12;;;;;;;13.77;3.95;;;;;;;7.41;84.65;101844.16;6102238;19;20031;-77
2023/01/30 03:19:25;;;;;;;9.82;4.47;;;;;;;7.40;85.08;101847.66;6106477;19;20435;-77
2023/01/30 03:21:30;;;;;;;14.07;4.28;;;;;;;7.40;84.88;101843.28;6106966;19;20469;-77
2023/01/30 03:23:35;;;;;;;10.90;4.90;;;;;;;7.38;85.10;101837.22;6105802;19;20051;-77
2023/01/30 03:25:43;;;;;;;12.88;3.55;;;;;;;7.41;85.00;101847.63;6104791;19;20074;-78
2023/01/30 03:27:48;;;;;;;10.57;3.65;;;;;;;7.39;85.03;101854.63;6106326;19;20014;-77
2023/01/30 03:29:53;;;;;;;11.57;4.05;;;;;;;7.38;84.83;101839.81;6108015;19;20018;-77
2023/01/30 03:31:58;;;;;;;10.85;4.22;;;;;;;7.40;84.81;101843.28;6106959;19;20017;-77
2023/01/30 03:34:04;;;;;;;10.60;3.95;;;;;;;7.40;84.88;101840.69;6106936;19;20444;-78
2023/01/30 03:36:12;;;;;;;10.70;3.97;;;;;;;7.40;84.84;101830.22;6105217;19;20014;-77
2023/01/30 03:38:18;;;;;;;16.27;4.20;;;;;;;7.44;84.56;101821.44;6106976;19;20014;-76
2023/01/30 03:40:24;;;;;;;13.65;4.03;;;;;;;7.44;84.58;101821.44;6106898;19;20385;-75
2023/01/30 03:42:29;;;;;;;14.30;4.07;;;;;;;7.43;84.72;101816.25;6104185;19;20345;-77
2023/01/30 03:44:36;;;;;;;10.30;4.50;;;;;;;7.44;84.75;101837.13;6104935;19;20022;-76
2023/01/30 03:46:41;;;;;;;8.15;2.80;;;;;;;7.43;84.67;101843.25;6105624;19;20471;-76
2023/01/30 03:48:48;;;;;;;17.80;4.45;;;;;;;7.41;84.92;101829.31;6109915;19;20078;-76
2023/01/30 03:50:53;;;;;;;10.95;3.42;;;;;;;7.37;85.04;101821.53;6110345;19;20010;-75
2023/01/30 03:53:01;;;;;;;23.25;4.25;;;;;;;7.38;85.01;101836.34;6104158;19;20018;-77
2023/01/30 03:55:09;;;;;;;16.15;4.22;;;;;;;7.41;84.81;101833.69;6108625;19;20035;-76
2023/01/30 03:57:14;;;;;;;16.63;4.75;;;;;;;7.41;85.07;101850.25;6108293;19;20006;-77
2023/01/30 03:59:19;;;;;;;13.57;4.70;;;;;;;7.40;85.36;101837.22;6106084;19;20014;-78
2023/01/30 04:01:24;;;;;;;12.68;5.28;;;;;;;7.40;85.19;101832.84;6107937;19;20022;-76
2023/01/30 04:03:30;;;;;;;13.80;4.05;;;;;;;7.34;85.81;101824.19;6106902;19;20290;-78
2023/01/30 04:05:35;;;;;;;15.52;4.30;;;;;;;7.32;85.82;101832.06;6107946;19;20026;-75
2023/01/30 04:07:40;;;;;;;11.43;4.35;;;;;;;7.42;85.50;101833.66;6105394;19;20054;-76
2023/01/30 04:09:47;;;;;;;11.07;3.55;;;;;;;7.40;85.50;101829.34;6108977;19;20497;-76
2023/01/30 04:11:52;;;;;;;11.35;4.20;;;;;;;7.36;85.73;101833.75;6109111;19;20044;-76
2023/01/30 04:13:57;;;;;;;13.70;4.13;;;;;;;7.34;85.52;101822.44;6104734;19;20495;-77
2023/01/30 04:16:27;;;;;;;13.07;4.18;;;;;;;7.32;85.89;101833.78;6107557;19;20017;-77
2023/01/30 04:18:33;;;;;;;13.27;3.85;;;;;;;7.27;86.04;101836.47;6105255;19;20799;-76
2023/01/30 04:20:41;;;;;;;13.02;4.40;;;;;;;7.25;86.07;101841.69;6103370;19;20022;-76
2023/01/30 04:22:49;;;;;;;15.85;4.18;;;;;;;7.20;86.12;101840.88;6103229;19;20014;-76
2023/01/30 04:24:56;;;;;;;13.52;4.28;;;;;;;7.19;86.00;101843.53;6101445;19;20625;-75
2023/01/30 04:27:01;;;;;;;12.43;4.13;;;;;;;7.13;86.11;101847.03;6105247;19;20463;-75
2023/01/30 04:29:06;;;;;;;20.10;5.13;;;;;;;7.19;85.24;101870.53;6103217;19;20014;-75
2023/01/30 04:31:11;;;;;;;12.50;3.80;;;;;;;7.08;85.06;101853.22;6102872;19;20074;-75
2023/01/30 04:33:15;;;;;;;13.45;3.70;;;;;;;7.09;84.12;101850.59;6102513;19;20051;-75
2023/01/30 04:35:21;;;;;;;17.70;4.80;;;;;;;7.10;82.92;101867.13;6101492;19;20014;-76
2023/01/30 04:37:25;;;;;;;8.73;2.60;;;;;;;7.26;80.26;101855.63;6103492;19;20011;-77
2023/01/30 04:39:30;;;;;;;11.90;3.42;;;;;;;7.29;79.62;101863.44;6103143;19;20080;-76
2023/01/30 04:41:38;;;;;;;10.80;3.03;;;;;;;7.25;79.85;101865.22;6105102;19;20007;-76
2023/01/30 04:43:43;;;;;;;14.68;3.35;;;;;;;7.29;79.55;101867.81;6100866;19;20549;-75
2023/01/30 04:45:49;;;;;;;8.25;2.83;;;;;;;7.35;78.41;101860.78;6104356;19;20348;-76
2023/01/30 04:47:56;;;;;;;7.75;2.70;;;;;;;7.44;77.84;101865.91;6107623;19;20578;-76
2023/01/30 04:50:01;;;;;;;4.60;2.25;;;;;;;7.39;77.90;101874.69;6104926;19;20417;-76
2023/01/30 04:52:06;;;;;;;6.90;2.83;;;;;;;7.48;77.17;101872.84;6105279;19;20014;-76
2023/01/30 04:54:11;;;;;;;9.02;2.90;;;;;;;7.53;76.55;101871.91;6107729;19;20331;-76
2023/01/30 04:56:17;;;;;;;7.63;2.72;;;;;;;7.58;76.21;101864.88;6107518;19;20015;-76
2023/01/30 04:58:27;;;;;;;10.48;2.65;;;;;;;7.53;76.33;101883.25;6106741;19;20011;-77
2023/01/30 05:00:33;;;;;;;11.60;3.42;;;;;;;7.57;76.23;101899.78;6106649;19;20052;-76
2023/01/30 05:02:38;;;;;;;9.65;3.00;;;;;;;7.53;76.34;101887.59;6105868;19;20078;-76
2023/01/30 05:04:44;;;;;;;9.32;3.60;;;;;;;7.55;76.08;101883.22;6105292;19;20022;-76
2023/01/30 05:06:49;;;;;;;9.68;2.65;;;;;;;7.52;76.68;101888.50;6105248;19;20040;-77
2023/01/30 05:08:56;;;;;;;8.52;2.65;;;;;;;7.50;76.68;101893.72;6106407;19;20309;-76
2023/01/30 05:11:01;;;;;;;10.85;3.25;;;;;;;7.43;77.14;101892.09;6105507;19;21326;-75
2023/01/30 05:13:06;;;;;;;9.80;2.75;;;;;;;7.36;77.80;101891.25;6102953;19;20501;-74
2023/01/30 05:15:15;;;;;;;10.00;3.28;;;;;;;7.30;77.86;101890.47;6103197;19;20059;-75
2023/01/30 05:17:21;;;;;;;10.05;3.22;;;;;;;7.25;77.23;101891.38;6104517;19;20038;-76
2023/01/30 05:19:26;;;;;;;18.95;3.40;;;;;;;7.24;77.21;101892.28;6105270;19;20033;-75
2023/01/30 05:21:31;;;;;;;7.15;3.08;;;;;;;7.19;77.40;101887.97;6103758;19;20435;-75
2023/01/30 05:23:45;;;;;;;14.32;3.53;;;;;;;7.17;77.54;101876.66;6103821;19;20031;-75
2023/01/30 05:25:50;;;;;;;7.78;3.08;;;;;;;7.13;77.56;101893.22;6105930;19;20082;-74
2023/01/30 05:27:56;;;;;;;7.28;2.67;;;;;;;7.12;77.70;101888.91;6106625;19;20017;-75
2023/01/30 05:30:01;;;;;;;7.93;3.20;;;;;;;7.04;78.16;101889.81;6109092;19;20010;-75
2023/01/30 05:32:08;;;;;;;8.48;3.55;;;;;;;6.97;78.09;101889.91;6110538;19;20086;-75
2023/01/30 05:34:14;;;;;;;12.63;3.10;;;;;;;6.90;78.51;101886.47;6107076;19;20013;-75
2023/01/30 05:36:21;;;;;;;10.27;3.28;;;;;;;6.81;79.06;101890.03;6105539;19;20028;-74
2023/01/30 05:38:27;;;;;;;12.00;4.03;;;;;;;6.85;78.92;101880.44;6106045;19;20049;-74
2023/01/30 05:40:33;;;;;;;14.20;3.50;;;;;;;6.79;78.99;101883.06;6103809;19;20074;-74
2023/01/30 05:42:39;;;;;;;10.10;3.28;;;;;;;6.72;79.66;101910.16;6105568;19;20015;-76
2023/01/30 05:44:44;;;;;;;15.88;3.88;;;;;;;6.73;79.79;101914.47;6103875;19;20036;-74
2023/01/30 05:46:51;;;;;;;18.48;3.85;;;;;;;6.68;80.52;101918.88;6099978;19;20040;-75
2023/01/30 05:49:02;;;;;;;11.13;3.17;;;;;;;6.71;80.13;101900.56;6100773;19;20339;-74
2023/01/30 05:51:17;;;;;;;10.65;2.95;;;;;;;6.55;80.54;101916.31;6103209;19;20455;-78
2023/01/30 05:53:23;;;;;;;10.82;3.65;;;;;;;6.62;80.77;101914.56;6095432;19;20363;-76
2023/01/30 05:55:28;;;;;;;16.13;3.45;;;;;;;6.56;81.27;101917.22;6102982;19;20029;-76
2023/01/30 05:57:36;;;;;;;16.60;3.40;;;;;;;6.51;81.10;101917.25;6101732;19;20089;-75
2023/01/30 05:59:41;;;;;;;16.08;3.40;;;;;;;6.48;80.96;101922.50;6097314;19;20011;-75
2023/01/30 06:01:47;;;;;;;17.25;4.25;;;;;;;6.44;80.58;101910.31;6101058;19;20112;-76
2023/01/30 06:03:52;;;;;;;10.43;2.85;;;;;;;6.43;79.75;101908.59;6082676;19;20013;-76
2023/01/30 06:06:00;;;;;;;20.42;4.63;;;;;;;6.41;79.34;101899.91;6101293;19;20034;-77
2023/01/30 06:08:06;;;;;;;14.57;3.85;;;;;;;6.52;78.40;101908.50;6099625;19;20108;-75
2023/01/30 06:10:13;;;;;;;10.52;2.97;;;;;;;6.47;78.49;101904.19;6078518;19;20019;-75
2023/01/30 06:12:21;;;;;;;23.65;4.00;;;;;;;6.48;77.45;101903.34;6080658;19;20023;-76
2023/01/30 06:14:26;;;;;;;13.77;4.22;;;;;;;6.44;77.42;101907.69;6098098;19;20019;-76
2023/01/30 06:16:31;;;;;;;15.05;3.67;;;;;;;6.34;77.54;101914.72;6074613;19;20047;-75
2023/01/30 06:18:40;;;;;;;14.38;3.05;;;;;;;6.38;77.09;101915.59;6102179;19;20170;-75
2023/01/30 06:20:52;;;;;;;17.35;3.47;;;;;;;6.28;77.04;101893.88;6095931;19;20010;-76
2023/01/30 06:22:59;;;;;;;17.42;3.97;;;;;;;6.29;76.37;101892.13;6078996;19;20059;-77
2023/01/30 06:25:07;;;;;;;17.50;4.25;;;;;;;6.27;75.69;101896.50;6095590;19;20014;-77
2023/01/30 06:27:13;;;;;;;10.93;3.38;;;;;;;6.26;75.50;101906.06;6081388;19;20011;-78
2023/01/30 06:29:21;;;;;;;16.00;4.95;;;;;;;6.43;73.20;101911.19;6081345;19;20010;-76
2023/01/30 06:31:25;;;;;;;14.75;3.45;;;;;;;6.33;73.78;101904.28;6084383;19;20480;-75
2023/01/30 06:33:30;;;;;;;18.10;3.45;;;;;;;6.33;73.74;101914.75;6104867;19;20022;-75
2023/01/30 06:35:38;;;;;;;10.88;2.72;;;;;;;6.41;72.65;101912.94;6083314;19;20541;-75
2023/01/30 06:37:45;;;;;;;21.50;4.13;;;;;;;6.37;72.64;101919.94;6098321;19;20010;-76
2023/01/30 06:39:55;;;;;;;17.35;3.90;;;;;;;6.42;72.12;101914.66;6082465;19;20566;-76
2023/01/30 06:42:00;;;;;;;18.65;3.97;;;;;;;6.38;71.50;101907.75;6081036;19;20038;-75
2023/01/30 06:44:06;;;;;;;12.82;3.05;;;;;;;6.31;71.69;101909.50;6083671;19;20527;-76
2023/01/30 06:46:11;;;;;;;14.35;3.92;;;;;;;6.24;71.44;101896.50;6080627;19;20081;-76
2023/01/30 06:48:19;;;;;;;15.25;3.85;;;;;;;6.24;70.58;101918.28;6076473;19;20006;-77
2023/01/30 06:50:26;;;;;;;13.82;3.15;;;;;;;6.15;70.81;101908.72;6081337;19;20017;-77
2023/01/30 06:52:30;;;;;;;16.33;3.50;;;;;;;6.23;69.54;101911.31;6099087;19;20179;-77
2023/01/30 06:54:36;;;;;;;17.85;2.88;;;;;;;6.18;69.58;101907.84;6081120;19;20601;-76
2023/01/30 06:56:44;;;;;;;13.27;3.40;;;;;;;6.25;68.64;101898.25;6083167;19;20347;-76
2023/01/30 06:58:51;;;;;;;14.93;2.75;;;;;;;6.17;68.80;101921.78;6081766;19;20036;-77
2023/01/30 07:00:56;;;;;;;15.32;3.58;;;;;;;6.32;67.33;101916.50;6100818;19;20419;-76
2023/01/30 07:03:01;;;;;;;17.58;3.95;;;;;;;6.29;68.39;101928.66;6103664;19;20335;-76
2023/01/30 07:05:09;;;;;;;8.13;2.50;;;;;;;6.24;68.54;101935.66;6080233;19;20366;-77
2023/01/30 07:07:16;;;;;;;9.32;3.13;;;;;;;6.19;68.88;101945.25;6079747;19;20086;-76
2023/01/30 07:09:21;;;;;;;15.68;3.33;;;;;;;6.15;69.05;101955.69;6079078;19;20007;-76
2023/01/30 07:11:26;;;;;;;11.95;3.00;;;;;;;6.17;69.00;101947.03;6079005;19;20017;-76
2023/01/30 07:13:33;;;;;;;13.57;3.17;;;;;;;6.13;69.83;101944.44;6104128;19;20029;-76
2023/01/30 07:15:42;;;;;;;15.52;3.90;;;;;;;6.25;68.81;101955.69;6080247;19;20459;-76
2023/01/30 07:17:51;;;;;;;19.33;3.38;;;;;;;6.22;69.08;101958.31;6079739;19;20028;-75
2023/01/30 07:19:58;;;;;;;14.70;2.90;;;;;;;6.23;69.42;101970.47;6098536;19;20011;-76
2023/01/30 07:22:05;;;;;;;14.23;3.45;;;;;;;6.23;69.53;101967.88;6101998;19;20011;-76
2023/01/30 07:24:10;;;;;;;14.18;2.45;;;;;;;6.23;69.30;101966.13;6080265;19;20023;-77
2023/01/30 07:26:15;;;;;;;12.73;2.85;;;;;;;6.20;69.83;101978.31;6100712;19;20496;-75
2023/01/30 07:28:20;;;;;;;10.65;3.22;;;;;;;6.15;69.79;101950.47;6103589;19;20082;-75
2023/01/30 07:30:29;;;;;;;14.93;4.93;;;;;;;6.20;69.83;101963.53;6102214;19;20018;-75
2023/01/30 07:32:36;;;;;;;14.82;2.88;;;;;;;6.10;70.37;101970.50;6102586;19;20388;-75
2023/01/30 07:34:41;;;;;;;12.05;2.97;;;;;;;6.14;70.67;101969.63;6081070;19;20113;-75
2023/01/30 07:36:46;;;;;;;15.00;3.20;;;;;;;6.20;70.25;101971.34;6097582;19;20015;-75
2023/01/30 07:38:51;;;;;;;13.68;3.65;;;;;;;6.27;70.24;101975.69;6080344;19;20011;-75
2023/01/30 07:40:59;;;;;;;12.15;3.20;;;;;;;6.20;70.49;101963.53;6080895;19;20675;-76
2023/01/30 07:43:09;;;;;;;16.73;4.00;;;;;;;6.22;70.37;101958.31;6103164;19;20015;-76
2023/01/30 07:45:16;;;;;;;13.73;3.60;;;;;;;6.28;70.16;101964.34;6099060;19;20758;-76
2023/01/30 07:47:25;;;;;;;18.48;3.65;;;;;;;6.24;70.29;101954.81;6102709;19;20039;-76
2023/01/30 07:49:31;;;;;;;11.82;3.17;;;;;;;6.23;70.61;101957.44;6055643;19;20454;-77
2023/01/30 07:51:38;;;;;;;13.05;2.88;;;;;;;6.14;70.74;101961.81;6081144;19;20576;-76
2023/01/30 07:53:43;;;;;;;13.75;3.05;;;;;;;6.23;70.51;101958.28;6072791;19;20494;-75
2023/01/30 07:55:56;;;;;;;9.65;2.75;;;;;;;6.16;71.20;101956.56;6079819;19;20732;-75
2023/01/30 07:58:02;;;;;;;17.55;3.50;;;;;;;6.20;70.81;101978.31;6100406;19;20040;-75
2023/01/30 08:00:09;;;;;;;19.02;3.70;;;;;;;6.22;70.79;101967.00;6102335;19;20421;-76
2023/01/30 08:02:14;;;;;;;12.75;3.50;;;;;;;6.28;70.84;101984.38;6074137;19;20014;-77
2023/01/30 08:04:22;;;;;;;16.75;3.45;;;;;;;6.23;70.71;101999.19;6085699;19;20048;-77
2023/01/30 08:06:27;;;;;;;13.63;3.03;;;;;;;6.30;70.44;101990.47;6085184;19;20135;-76
2023/01/30 08:08:32;;;;;;;20.88;3.97;;;;;;;6.31;70.22;102000.88;6085479;19;20347;-76
2023/01/30 08:10:39;;;;;;;19.85;3.60;;;;;;;6.30;70.33;102003.50;6106749;19;20011;-77
2023/01/30 08:12:44;;;;;;;16.30;3.45;;;;;;;6.38;69.96;102000.00;6089309;19;20051;-75
2023/01/30 08:14:49;;;;;;;10.30;2.65;;;;;;;6.37;70.13;102008.72;6111560;19;20010;-76
2023/01/30 08:16:55;;;;;;;15.85;2.97;;;;;;;6.43;69.39;101997.38;6090477;19;20040;-76
2023/01/30 08:19:02;;;;;;;11.68;2.15;;;;;;;6.42;69.35;101999.97;6066042;19;20011;-76
2023/01/30 08:21:12;;;;;;;13.70;2.53;;;;;;;6.44;69.02;101993.00;6087889;19;20014;-76
2023/01/30 08:23:17;;;;;;;10.73;3.25;;;;;;;6.39;70.01;101990.41;6086582;19;20074;-75
2023/01/30 08:25:23;;;;;;;12.77;3.55;;;;;;;6.34;70.21;101990.41;6085560;19;20109;-75
2023/01/30 08:27:28;;;;;;;9.32;2.78;;;;;;;6.41;69.48;101988.66;6064904;19;20427;-75
2023/01/30 08:29:36;;;;;;;12.68;3.13;;;;;;;6.34;69.99;102008.69;6115956;19;20006;-75
2023/01/30 08:31:41;;;;;;;15.40;4.03;;;;;;;6.37;70.07;102005.19;6107640;19;20126;-75
2023/01/30 08:33:50;;;;;;;20.08;3.33;;;;;;;6.40;69.77;102006.94;6111989;19;20039;-75
2023/01/30 08:35:55;;;;;;;13.77;3.10;;;;;;;6.40;69.89;101996.50;6107923;19;20013;-76
2023/01/30 08:38:02;;;;;;;17.42;3.63;;;;;;;6.54;69.14;101995.56;6089100;19;20038;-76
2023/01/30 08:40:11;;;;;;;13.00;3.22;;;;;;;6.49;70.01;101981.66;6102091;19;20079;-76
2023/01/30 08:42:19;;;;;;;14.85;3.38;;;;;;;6.53;69.84;102021.66;6086810;19;20014;-76
2023/01/30 08:44:26;;;;;;;14.50;3.20;;;;;;;6.52;70.22;102023.41;6105639;19;20007;-76
2023/01/30 08:46:31;;;;;;;18.02;4.40;;;;;;;6.59;69.56;102032.97;6104307;19;20007;-76
2023/01/30 08:48:42;;;;;;;12.93;4.00;;;;;;;6.59;69.80;102040.81;6080990;19;20021;-77
2023/01/30 08:50:54;;;;;;;13.20;3.38;;;;;;;6.63;69.91;102066.91;6103513;19;20376;-77
2023/01/30 08:53:06;;;;;;;15.20;3.92;;;;;;;6.76;69.11;102048.53;6103276;19;20016;-76
2023/01/30 08:55:11;;;;;;;17.25;2.92;;;;;;;6.85;68.53;102037.19;6106171;19;20019;-76
2023/01/30 08:57:18;;;;;;;14.45;2.55;;;;;;;6.89;68.90;102040.66;6104032;19;20028;-77
2023/01/30 08:59:23;;;;;;;14.27;3.58;;;;;;;6.87;68.33;102052.84;6107122;19;20010;-76
2023/01/30 09:01:28;;;;;;;9.95;3.42;;;;;;;6.93;67.49;102056.31;6083345;19;20010;-77
2023/01/30 09:03:36;;;;;;;15.75;2.97;;;;;;;6.94;67.98;102057.16;6105335;19;20010;-75
2023/01/30 09:05:41;;;;;;;9.23;2.95;;;;;;;6.93;67.84;102068.50;6101458;19;20011;-75
2023/01/30 09:07:52;;;;;;;18.95;3.30;;;;;;;6.91;67.43;102063.28;6105062;19;20044;-75
2023/01/30 09:09:59;;;;;;;11.98;2.95;;;;;;;6.93;67.34;102051.06;6085537;19;20534;-75
2023/01/30 09:12:05;;;;;;;16.48;3.00;;;;;;;6.90;67.82;102052.81;6104467;19;20015;-75
2023/01/30 09:14:10;;;;;;;9.57;2.88;;;;;;;6.87;68.09;102061.53;6105572;19;20090;-75
2023/01/30 09:16:14;;;;;;;15.80;3.13;;;;;;;6.86;68.22;102085.94;6106866;19;20014;-75
2023/01/30 09:18:20;;;;;;;15.05;2.58;;;;;;;6.92;68.51;102067.63;6106911;19;20433;-76
2023/01/30 09:20:25;;;;;;;14.15;3.33;;;;;;;6.94;68.02;102089.38;6106699;19;20014;-76
2023/01/30 09:22:30;;;;;;;18.95;3.70;;;;;;;6.91;68.51;102073.72;6102840;19;20019;-76
2023/01/30 09:24:35;;;;;;;13.45;3.17;;;;;;;6.92;68.62;102067.63;6081826;19;20011;-75
2023/01/30 09:26:44;;;;;;;13.93;2.95;;;;;;;6.98;68.33;102074.56;6103837;19;20014;-76
2023/01/30 09:28:50;;;;;;;10.40;2.95;;;;;;;7.01;67.59;102090.25;6083920;19;20017;-76
2023/01/30 09:30:55;;;;;;;10.70;3.42;;;;;;;7.06;66.88;102077.13;6104483;19;20062;-76
2023/01/30 09:33:00;;;;;;;14.15;3.70;;;;;;;7.15;66.84;102077.06;6084383;19;20010;-76
2023/01/30 09:35:07;;;;;;;11.85;3.33;;;;;;;7.18;66.59;102085.75;6107319;19;20018;-76
2023/01/30 09:37:12;;;;;;;13.60;3.53;;;;;;;7.20;66.90;102091.84;6103953;19;20066;-75
2023/01/30 09:39:17;;;;;;;6.53;3.55;;;;;;;7.22;66.74;102099.69;6101758;19;20014;-77
2023/01/30 09:41:39;;;;;;;22.90;4.18;;;;;;;7.24;66.59;102082.22;6099276;19;20015;-76
2023/01/30 09:44:03;;;;;;;10.15;3.10;;;;;;;7.26;66.66;102101.41;6099438;19;20044;-76
2023/01/30 09:46:24;;;;;;;12.55;3.17;;;;;;;7.29;66.81;102101.38;6086036;19;20551;-76
2023/01/30 09:48:37;;;;;;;13.73;3.63;;;;;;;7.28;66.19;102124.94;6105778;19;20021;-76
2023/01/30 09:51:23;;;;;;;12.60;2.58;;;;;;;7.25;66.80;102123.19;6102927;19;20092;-76
2023/01/30 09:53:40;;;;;;;11.50;3.47;;;;;;;7.23;66.21;102117.09;6095371;19;20077;-75
2023/01/30 09:55:45;;;;;;;18.67;3.47;;;;;;;7.23;66.39;102101.41;6098104;19;20014;-74
2023/01/30 09:57:52;;;;;;;14.30;4.30;;;;;;;7.26;66.46;102112.72;6105811;19;20490;-74
2023/01/30 10:00:07;;;;;;;11.40;3.10;;;;;;;7.28;65.74;102110.09;6103951;19;20157;-77
2023/01/30 10:02:29;;;;;;;14.35;3.53;;;;;;;7.29;66.36;102113.56;6104020;19;20006;-75
2023/01/30 10:04:37;;;;;;;12.25;3.08;;;;;;;7.34;66.35;102130.97;6105504;19;20071;-75
2023/01/30 10:06:57;;;;;;;16.50;4.18;;;;;;;7.29;66.52;102137.97;6082177;19;20025;-75